WSSL/XSP METAR and TAF weather

Enter ICAO airport designator
Station Type Date Time Source
WSSL METAR 2022/07/01 01:00 UTC NOAA

WSSL 010100Z 17008KT 9999 FEW016 BKN300 29/25 Q1008


Station Type Date Time Source
WSSL Decoded METAR 2022/07/01 01:00 UTC NOAA

Station name not available
Jun 30, 2022 - 09:00 PM EDT / 2022.07.01 0100 UTC
Wind: from the S (170 degrees) at 9 MPH (8 KT):0
Visibility: greater than 7 mile(s):0
Sky conditions: mostly cloudy
Temperature: 84 F (29 C)
Dew Point: 77 F (25 C)
Relative Humidity: 79%
Pressure (altimeter): 29.77 in. Hg (1008 hPa)
ob: WSSL 010100Z 17008KT 9999 FEW016 BKN300 29/25 Q1008
cycle: 1

Station Type Date Time Source
WSSL TAF 2022/06/30 18:00 UTC NOAA

TAF WSSL 301700Z 3018/0200 21009KT 9999 FEW015 SCT020

Example: see airport list